Altoona, IA (50009)

9:36 AM CDT on July 29, 2016 (GMT -0500)
Altoona, Iowa (NE) | | Change Station

Elev 938 ft 41.64 °N, 93.45 °W | Updated 14 seconds ago

Overcast
Overcast
68.4 °F
Feels Like 68.4 °F
N
0.0
Wind Variable Wind from ENE
Gusts 0.0 mph

Today
High -- | Low -- °F
--% Chance of Precip.
Yesterday
High -- | Low -- °F
Precip. -- in
Pressure 30.01 in
Visibility 10.0 miles
Clouds Few 800 ft
Overcast 1200 ft
Dew Point 64 °F
Humidity 86%
Rainfall 0.00 in
Snow Depth Not available.
6:05 AM 8:34 PM
Waning Crescent, 21% visible
METAR KDSM 291354Z 35006KT 10SM FEW008 OVC012 20/16 A3002 RMK AO2 SLP161 T02000161
Pressure 30.01 in
Visibility 10.0 miles
Clouds Few 800 ft
Overcast 1200 ft
Dew Point 64 °F
Humidity 86%
Rainfall 0.00 in
Snow Depth Not available.
6:05 AM 8:34 PM
Waning Crescent, 21% visible
METAR KDSM 291354Z 35006KT 10SM FEW008 OVC012 20/16 A3002 RMK AO2 SLP161 T02000161

10-Day Weather Forecast

Almanac

Astronomy

Jul. 29, 2016 Rise Set
Actual Time
Civil Twilight
Nautical Twilight
Astronomical Twilight
Moon
Length of Visible Light
Length of Day
Tomorrow will be .
, % of the Moon is Illuminated

Today's Extremes

State Highs State Lows

Community

WunderPhotos

Upload Photos

1,928,342 photos uploaded!

WunderBlog® & News

Nearby

Air Quality

  Air Quality AQ Index Pollutant
Not available.

Snow Depth

Station Depth Elevation

Earthquake Activity

City Distance Mag. Time & Date
Minimum magnitude displayed is 2.5.

Coastal Water Temperatures

Place Temperature

Stations

Nearby Weather Stations

Station Location Temp. Windchill Dew Point Humidity Wind Precip. Elev Updated Type
                   

Watches & Warnings

There are currently no watches in effect.